sensor_id;sensor_type;location;lat;lon;timestamp;P1;durP1;ratioP1;P2;durP2;ratioP2
27145;SDS011;17980;51.744;7.190;2024-02-28T00:00:15;3.10;;;1.20;;
27145;SDS011;17980;51.744;7.190;2024-02-28T00:02:53;1.00;;;1.00;;
27145;SDS011;17980;51.744;7.190;2024-02-28T00:05:20;1.30;;;0.70;;
27145;SDS011;17980;51.744;7.190;2024-02-28T00:07:48;1.23;;;0.87;;
27145;SDS011;17980;51.744;7.190;2024-02-28T00:10:15;4.67;;;1.43;;
27145;SDS011;17980;51.744;7.190;2024-02-28T00:12:52;3.60;;;2.30;;
27145;SDS011;17980;51.744;7.190;2024-02-28T00:15:19;0.80;;;0.60;;
27145;SDS011;17980;51.744;7.190;2024-02-28T00:17:47;0.90;;;0.90;;
27145;SDS011;17980;51.744;7.190;2024-02-28T00:20:16;6.53;;;1.90;;
27145;SDS011;17980;51.744;7.190;2024-02-28T00:22:53;0.87;;;0.77;;
27145;SDS011;17980;51.744;7.190;2024-02-28T00:25:20;3.10;;;1.50;;
27145;SDS011;17980;51.744;7.190;2024-02-28T00:27:47;1.63;;;0.80;;
27145;SDS011;17980;51.744;7.190;2024-02-28T00:30:15;1.47;;;0.80;;
27145;SDS011;17980;51.744;7.190;2024-02-28T00:32:51;1.00;;;0.70;;
27145;SDS011;17980;51.744;7.190;2024-02-28T00:35:19;0.53;;;0.27;;
27145;SDS011;17980;51.744;7.190;2024-02-28T00:37:46;3.80;;;0.53;;
27145;SDS011;17980;51.744;7.190;2024-02-28T00:40:13;1.17;;;0.97;;
27145;SDS011;17980;51.744;7.190;2024-02-28T00:42:50;0.63;;;0.63;;
27145;SDS011;17980;51.744;7.190;2024-02-28T00:45:18;3.00;;;1.30;;
27145;SDS011;17980;51.744;7.190;2024-02-28T00:47:45;0.47;;;0.43;;
27145;SDS011;17980;51.744;7.190;2024-02-28T00:50:12;4.23;;;0.77;;
27145;SDS011;17980;51.744;7.190;2024-02-28T00:52:49;3.80;;;1.03;;
27145;SDS011;17980;51.744;7.190;2024-02-28T00:55:17;2.03;;;0.57;;
27145;SDS011;17980;51.744;7.190;2024-02-28T00:57:44;1.67;;;1.37;;
27145;SDS011;17980;51.744;7.190;2024-02-28T01:00:12;1.50;;;0.93;;
27145;SDS011;17980;51.744;7.190;2024-02-28T01:02:49;0.70;;;0.63;;
27145;SDS011;17980;51.744;7.190;2024-02-28T01:05:17;0.80;;;0.80;;
27145;SDS011;17980;51.744;7.190;2024-02-28T01:07:54;0.47;;;0.47;;
27145;SDS011;17980;51.744;7.190;2024-02-28T01:10:22;1.60;;;0.97;;
27145;SDS011;17980;51.744;7.190;2024-02-28T01:12:59;4.23;;;1.40;;
27145;SDS011;17980;51.744;7.190;2024-02-28T01:15:27;2.90;;;2.60;;
27145;SDS011;17980;51.744;7.190;2024-02-28T01:17:54;3.17;;;1.63;;
27145;SDS011;17980;51.744;7.190;2024-02-28T01:20:22;1.57;;;1.47;;
27145;SDS011;17980;51.744;7.190;2024-02-28T01:22:58;1.53;;;0.93;;
27145;SDS011;17980;51.744;7.190;2024-02-28T01:25:26;2.83;;;1.40;;
27145;SDS011;17980;51.744;7.190;2024-02-28T01:27:53;3.20;;;0.80;;
27145;SDS011;17980;51.744;7.190;2024-02-28T01:30:21;0.50;;;0.50;;
27145;SDS011;17980;51.744;7.190;2024-02-28T01:32:58;1.00;;;0.80;;
27145;SDS011;17980;51.744;7.190;2024-02-28T01:35:26;2.40;;;1.20;;
27145;SDS011;17980;51.744;7.190;2024-02-28T01:37:53;3.57;;;0.90;;
27145;SDS011;17980;51.744;7.190;2024-02-28T01:40:20;1.33;;;1.07;;
27145;SDS011;17980;51.744;7.190;2024-02-28T01:43:02;3.33;;;1.37;;
27145;SDS011;17980;51.744;7.190;2024-02-28T01:45:30;1.70;;;1.03;;
27145;SDS011;17980;51.744;7.190;2024-02-28T01:47:57;2.10;;;1.27;;
27145;SDS011;17980;51.744;7.190;2024-02-28T01:50:25;2.23;;;1.47;;
27145;SDS011;17980;51.744;7.190;2024-02-28T01:53:02;1.47;;;0.80;;
27145;SDS011;17980;51.744;7.190;2024-02-28T01:55:30;1.07;;;0.53;;
27145;SDS011;17980;51.744;7.190;2024-02-28T01:57:58;0.27;;;0.27;;
27145;SDS011;17980;51.744;7.190;2024-02-28T02:00:25;2.77;;;1.43;;
27145;SDS011;17980;51.744;7.190;2024-02-28T02:02:54;8.13;;;2.13;;
27145;SDS011;17980;51.744;7.190;2024-02-28T02:05:35;0.53;;;0.40;;
27145;SDS011;17980;51.744;7.190;2024-02-28T02:08:03;1.90;;;0.50;;
27145;SDS011;17980;51.744;7.190;2024-02-28T02:10:31;2.40;;;2.07;;
27145;SDS011;17980;51.744;7.190;2024-02-28T02:13:08;1.33;;;0.83;;
27145;SDS011;17980;51.744;7.190;2024-02-28T02:15:35;1.00;;;0.83;;
27145;SDS011;17980;51.744;7.190;2024-02-28T02:18:04;1.30;;;0.97;;
27145;SDS011;17980;51.744;7.190;2024-02-28T02:23:09;6.00;;;0.63;;
27145;SDS011;17980;51.744;7.190;2024-02-28T02:25:43;0.43;;;0.43;;
27145;SDS011;17980;51.744;7.190;2024-02-28T02:28:11;1.07;;;1.00;;
27145;SDS011;17980;51.744;7.190;2024-02-28T02:30:38;3.03;;;1.00;;
27145;SDS011;17980;51.744;7.190;2024-02-28T02:33:15;1.50;;;1.40;;
27145;SDS011;17980;51.744;7.190;2024-02-28T02:35:43;3.57;;;1.57;;
27145;SDS011;17980;51.744;7.190;2024-02-28T02:38:10;2.53;;;1.43;;
27145;SDS011;17980;51.744;7.190;2024-02-28T02:40:37;1.77;;;1.00;;
27145;SDS011;17980;51.744;7.190;2024-02-28T02:43:14;0.67;;;0.67;;
27145;SDS011;17980;51.744;7.190;2024-02-28T02:45:42;1.77;;;0.80;;
27145;SDS011;17980;51.744;7.190;2024-02-28T02:48:09;0.93;;;0.60;;
27145;SDS011;17980;51.744;7.190;2024-02-28T02:50:37;1.47;;;1.20;;
27145;SDS011;17980;51.744;7.190;2024-02-28T02:53:14;1.43;;;1.10;;
27145;SDS011;17980;51.744;7.190;2024-02-28T02:55:41;0.87;;;0.63;;
27145;SDS011;17980;51.744;7.190;2024-02-28T02:58:08;3.73;;;1.40;;
27145;SDS011;17980;51.744;7.190;2024-02-28T03:00:36;1.70;;;1.27;;
27145;SDS011;17980;51.744;7.190;2024-02-28T03:03:03;0.70;;;0.70;;
27145;SDS011;17980;51.744;7.190;2024-02-28T03:05:32;3.83;;;2.20;;
27145;SDS011;17980;51.744;7.190;2024-02-28T03:07:59;3.80;;;1.40;;
27145;SDS011;17980;51.744;7.190;2024-02-28T03:10:27;3.87;;;1.50;;
27145;SDS011;17980;51.744;7.190;2024-02-28T03:13:04;5.00;;;1.00;;
27145;SDS011;17980;51.744;7.190;2024-02-28T03:15:32;1.00;;;0.90;;
27145;SDS011;17980;51.744;7.190;2024-02-28T03:18:00;2.00;;;1.00;;
27145;SDS011;17980;51.744;7.190;2024-02-28T03:20:28;0.40;;;0.40;;
27145;SDS011;17980;51.744;7.190;2024-02-28T03:23:05;0.60;;;0.60;;
27145;SDS011;17980;51.744;7.190;2024-02-28T03:25:35;8.27;;;1.13;;
27145;SDS011;17980;51.744;7.190;2024-02-28T03:28:03;4.10;;;1.03;;
27145;SDS011;17980;51.744;7.190;2024-02-28T03:30:31;2.70;;;0.93;;
27145;SDS011;17980;51.744;7.190;2024-02-28T03:33:01;2.73;;;1.03;;
27145;SDS011;17980;51.744;7.190;2024-02-28T03:35:30;4.00;;;0.60;;
27145;SDS011;17980;51.744;7.190;2024-02-28T03:38:07;2.43;;;1.30;;
27145;SDS011;17980;51.744;7.190;2024-02-28T03:40:35;4.50;;;1.63;;
27145;SDS011;17980;51.744;7.190;2024-02-28T03:43:12;6.80;;;2.70;;
27145;SDS011;17980;51.744;7.190;2024-02-28T03:45:39;2.10;;;1.57;;
27145;SDS011;17980;51.744;7.190;2024-02-28T03:48:07;0.77;;;0.77;;
27145;SDS011;17980;51.744;7.190;2024-02-28T03:50:37;1.80;;;1.33;;
27145;SDS011;17980;51.744;7.190;2024-02-28T03:53:20;2.07;;;0.83;;
27145;SDS011;17980;51.744;7.190;2024-02-28T03:55:49;3.10;;;0.97;;
27145;SDS011;17980;51.744;7.190;2024-02-28T03:58:17;0.83;;;0.50;;
27145;SDS011;17980;51.744;7.190;2024-02-28T04:00:44;8.20;;;2.10;;
27145;SDS011;17980;51.744;7.190;2024-02-28T04:03:21;1.43;;;0.93;;
27145;SDS011;17980;51.744;7.190;2024-02-28T04:05:51;1.27;;;1.17;;
27145;SDS011;17980;51.744;7.190;2024-02-28T04:08:19;0.73;;;0.70;;
27145;SDS011;17980;51.744;7.190;2024-02-28T04:10:55;0.97;;;0.60;;
27145;SDS011;17980;51.744;7.190;2024-02-28T04:13:23;0.40;;;0.40;;
27145;SDS011;17980;51.744;7.190;2024-02-28T04:16:00;1.00;;;0.77;;
27145;SDS011;17980;51.744;7.190;2024-02-28T04:18:30;0.97;;;0.80;;
27145;SDS011;17980;51.744;7.190;2024-02-28T04:20:59;1.17;;;0.80;;
27145;SDS011;17980;51.744;7.190;2024-02-28T04:23:36;0.60;;;0.60;;
27145;SDS011;17980;51.744;7.190;2024-02-28T04:26:06;8.97;;;1.60;;
27145;SDS011;17980;51.744;7.190;2024-02-28T04:28:49;0.80;;;0.33;;
27145;SDS011;17980;51.744;7.190;2024-02-28T04:31:16;3.77;;;1.30;;
27145;SDS011;17980;51.744;7.190;2024-02-28T04:33:59;1.80;;;0.93;;
27145;SDS011;17980;51.744;7.190;2024-02-28T04:36:26;5.10;;;1.00;;
27145;SDS011;17980;51.744;7.190;2024-02-28T04:38:56;2.03;;;1.50;;
27145;SDS011;17980;51.744;7.190;2024-02-28T04:41:23;2.73;;;1.87;;
27145;SDS011;17980;51.744;7.190;2024-02-28T04:44:03;4.10;;;2.07;;
27145;SDS011;17980;51.744;7.190;2024-02-28T04:46:30;3.37;;;1.50;;
27145;SDS011;17980;51.744;7.190;2024-02-28T04:48:59;8.03;;;1.63;;
27145;SDS011;17980;51.744;7.190;2024-02-28T04:51:26;3.87;;;1.23;;
27145;SDS011;17980;51.744;7.190;2024-02-28T04:54:03;1.80;;;0.97;;
27145;SDS011;17980;51.744;7.190;2024-02-28T04:56:31;5.37;;;1.73;;
27145;SDS011;17980;51.744;7.190;2024-02-28T04:59:05;23.43;;;8.37;;
27145;SDS011;17980;51.744;7.190;2024-02-28T05:01:32;14.47;;;5.07;;
27145;SDS011;17980;51.744;7.190;2024-02-28T05:04:09;2.10;;;1.07;;
27145;SDS011;17980;51.744;7.190;2024-02-28T05:06:36;2.10;;;0.70;;
27145;SDS011;17980;51.744;7.190;2024-02-28T05:09:07;1.53;;;1.30;;
27145;SDS011;17980;51.744;7.190;2024-02-28T05:11:35;1.37;;;1.27;;
27145;SDS011;17980;51.744;7.190;2024-02-28T05:14:12;10.97;;;6.17;;
27145;SDS011;17980;51.744;7.190;2024-02-28T05:16:40;3.60;;;2.07;;
27145;SDS011;17980;51.744;7.190;2024-02-28T05:19:07;4.40;;;1.43;;
27145;SDS011;17980;51.744;7.190;2024-02-28T05:21:39;3.03;;;1.10;;
27145;SDS011;17980;51.744;7.190;2024-02-28T05:24:17;9.17;;;1.20;;
27145;SDS011;17980;51.744;7.190;2024-02-28T05:26:45;4.33;;;1.70;;
27145;SDS011;17980;51.744;7.190;2024-02-28T05:29:12;1.30;;;1.10;;
27145;SDS011;17980;51.744;7.190;2024-02-28T05:31:41;1.93;;;1.47;;
27145;SDS011;17980;51.744;7.190;2024-02-28T05:34:18;2.07;;;0.77;;
27145;SDS011;17980;51.744;7.190;2024-02-28T05:36:46;2.73;;;1.40;;
27145;SDS011;17980;51.744;7.190;2024-02-28T05:39:14;7.93;;;1.60;;
27145;SDS011;17980;51.744;7.190;2024-02-28T05:41:41;9.33;;;1.70;;
27145;SDS011;17980;51.744;7.190;2024-02-28T05:44:09;7.60;;;1.13;;
27145;SDS011;17980;51.744;7.190;2024-02-28T05:46:36;4.57;;;1.17;;
27145;SDS011;17980;51.744;7.190;2024-02-28T05:49:13;3.13;;;1.03;;
27145;SDS011;17980;51.744;7.190;2024-02-28T05:51:40;5.53;;;1.87;;
27145;SDS011;17980;51.744;7.190;2024-02-28T05:54:08;1.47;;;1.23;;
27145;SDS011;17980;51.744;7.190;2024-02-28T05:56:36;5.17;;;1.77;;
27145;SDS011;17980;51.744;7.190;2024-02-28T05:59:13;1.27;;;0.90;;
27145;SDS011;17980;51.744;7.190;2024-02-28T06:01:41;7.60;;;2.77;;
27145;SDS011;17980;51.744;7.190;2024-02-28T06:04:14;5.13;;;2.23;;
27145;SDS011;17980;51.744;7.190;2024-02-28T06:06:42;1.90;;;1.27;;
27145;SDS011;17980;51.744;7.190;2024-02-28T06:09:29;2.97;;;0.87;;
27145;SDS011;17980;51.744;7.190;2024-02-28T06:11:56;1.57;;;1.10;;
27145;SDS011;17980;51.744;7.190;2024-02-28T06:14:24;4.97;;;3.27;;
27145;SDS011;17980;51.744;7.190;2024-02-28T06:16:52;2.13;;;1.40;;
27145;SDS011;17980;51.744;7.190;2024-02-28T06:19:29;3.67;;;0.67;;
27145;SDS011;17980;51.744;7.190;2024-02-28T06:21:57;5.93;;;1.93;;
27145;SDS011;17980;51.744;7.190;2024-02-28T06:24:25;2.43;;;1.20;;
27145;SDS011;17980;51.744;7.190;2024-02-28T06:26:54;2.03;;;1.17;;
27145;SDS011;17980;51.744;7.190;2024-02-28T06:29:22;1.83;;;0.67;;
27145;SDS011;17980;51.744;7.190;2024-02-28T06:31:50;2.97;;;1.93;;
27145;SDS011;17980;51.744;7.190;2024-02-28T06:34:27;2.00;;;1.03;;
27145;SDS011;17980;51.744;7.190;2024-02-28T06:36:57;2.03;;;0.93;;
27145;SDS011;17980;51.744;7.190;2024-02-28T06:39:26;2.90;;;1.93;;
27145;SDS011;17980;51.744;7.190;2024-02-28T06:41:53;3.90;;;0.73;;
27145;SDS011;17980;51.744;7.190;2024-02-28T06:44:30;3.73;;;1.63;;
27145;SDS011;17980;51.744;7.190;2024-02-28T06:46:58;12.00;;;2.00;;
27145;SDS011;17980;51.744;7.190;2024-02-28T06:49:25;2.97;;;1.43;;
27145;SDS011;17980;51.744;7.190;2024-02-28T06:51:52;0.87;;;0.87;;
27145;SDS011;17980;51.744;7.190;2024-02-28T06:54:32;6.57;;;2.63;;
27145;SDS011;17980;51.744;7.190;2024-02-28T06:56:59;3.40;;;1.43;;
27145;SDS011;17980;51.744;7.190;2024-02-28T06:59:28;5.50;;;1.90;;
27145;SDS011;17980;51.744;7.190;2024-02-28T07:01:57;3.73;;;1.53;;
27145;SDS011;17980;51.744;7.190;2024-02-28T07:04:34;3.50;;;2.47;;
27145;SDS011;17980;51.744;7.190;2024-02-28T07:07:03;4.60;;;1.77;;
27145;SDS011;17980;51.744;7.190;2024-02-28T07:09:32;6.23;;;2.53;;
27145;SDS011;17980;51.744;7.190;2024-02-28T07:12:03;10.13;;;3.13;;
27145;SDS011;17980;51.744;7.190;2024-02-28T07:14:40;3.90;;;1.80;;
27145;SDS011;17980;51.744;7.190;2024-02-28T07:17:10;3.00;;;1.30;;
27145;SDS011;17980;51.744;7.190;2024-02-28T07:19:39;3.53;;;2.73;;
27145;SDS011;17980;51.744;7.190;2024-02-28T07:22:06;6.50;;;2.13;;
27145;SDS011;17980;51.744;7.190;2024-02-28T07:24:43;8.33;;;2.30;;
27145;SDS011;17980;51.744;7.190;2024-02-28T07:27:11;7.33;;;2.03;;
27145;SDS011;17980;51.744;7.190;2024-02-28T07:29:43;6.07;;;2.63;;
27145;SDS011;17980;51.744;7.190;2024-02-28T07:32:12;3.00;;;2.37;;
27145;SDS011;17980;51.744;7.190;2024-02-28T07:34:49;5.03;;;2.93;;
27145;SDS011;17980;51.744;7.190;2024-02-28T07:37:17;2.87;;;1.80;;
27145;SDS011;17980;51.744;7.190;2024-02-28T07:39:44;3.27;;;2.77;;
27145;SDS011;17980;51.744;7.190;2024-02-28T07:42:13;3.47;;;2.27;;
27145;SDS011;17980;51.744;7.190;2024-02-28T07:44:50;3.50;;;2.17;;
27145;SDS011;17980;51.744;7.190;2024-02-28T07:47:19;6.87;;;2.47;;
27145;SDS011;17980;51.744;7.190;2024-02-28T07:49:47;4.97;;;2.97;;
27145;SDS011;17980;51.744;7.190;2024-02-28T07:52:15;4.90;;;2.03;;
27145;SDS011;17980;51.744;7.190;2024-02-28T07:54:52;2.10;;;1.97;;
27145;SDS011;17980;51.744;7.190;2024-02-28T07:57:19;7.63;;;4.07;;
27145;SDS011;17980;51.744;7.190;2024-02-28T07:59:47;6.23;;;2.40;;
27145;SDS011;17980;51.744;7.190;2024-02-28T08:02:16;8.80;;;3.00;;
27145;SDS011;17980;51.744;7.190;2024-02-28T08:04:53;3.40;;;2.13;;
27145;SDS011;17980;51.744;7.190;2024-02-28T08:07:20;1.43;;;1.23;;
27145;SDS011;17980;51.744;7.190;2024-02-28T08:09:47;6.30;;;2.47;;
27145;SDS011;17980;51.744;7.190;2024-02-28T08:12:15;5.20;;;3.40;;
27145;SDS011;17980;51.744;7.190;2024-02-28T08:14:52;10.10;;;2.77;;
27145;SDS011;17980;51.744;7.190;2024-02-28T08:17:19;3.57;;;2.03;;
27145;SDS011;17980;51.744;7.190;2024-02-28T08:22:22;8.20;;;3.13;;
27145;SDS011;17980;51.744;7.190;2024-02-28T08:24:51;5.93;;;2.00;;
27145;SDS011;17980;51.744;7.190;2024-02-28T08:27:28;5.03;;;2.23;;
27145;SDS011;17980;51.744;7.190;2024-02-28T08:29:55;4.27;;;2.03;;
27145;SDS011;17980;51.744;7.190;2024-02-28T08:32:22;4.53;;;1.73;;
27145;SDS011;17980;51.744;7.190;2024-02-28T08:35:00;6.77;;;2.43;;
27145;SDS011;17980;51.744;7.190;2024-02-28T08:37:27;5.60;;;2.80;;
27145;SDS011;17980;51.744;7.190;2024-02-28T08:39:54;6.60;;;3.20;;
27145;SDS011;17980;51.744;7.190;2024-02-28T08:42:24;11.47;;;3.50;;
27145;SDS011;17980;51.744;7.190;2024-02-28T08:45:01;5.70;;;2.73;;
27145;SDS011;17980;51.744;7.190;2024-02-28T08:50:06;6.33;;;2.60;;
27145;SDS011;17980;51.744;7.190;2024-02-28T08:52:34;4.60;;;2.63;;
27145;SDS011;17980;51.744;7.190;2024-02-28T08:55:11;8.10;;;3.80;;
27145;SDS011;17980;51.744;7.190;2024-02-28T08:57:38;7.77;;;3.10;;
27145;SDS011;17980;51.744;7.190;2024-02-28T09:00:07;9.23;;;2.97;;
27145;SDS011;17980;51.744;7.190;2024-02-28T09:02:35;11.13;;;3.43;;
27145;SDS011;17980;51.744;7.190;2024-02-28T09:05:12;4.10;;;1.90;;
27145;SDS011;17980;51.744;7.190;2024-02-28T09:07:40;13.13;;;3.90;;
27145;SDS011;17980;51.744;7.190;2024-02-28T09:10:08;13.23;;;3.73;;
27145;SDS011;17980;51.744;7.190;2024-02-28T09:12:37;7.87;;;3.53;;
27145;SDS011;17980;51.744;7.190;2024-02-28T09:15:14;5.80;;;3.30;;
27145;SDS011;17980;51.744;7.190;2024-02-28T09:17:41;7.80;;;2.47;;
27145;SDS011;17980;51.744;7.190;2024-02-28T09:20:11;5.30;;;2.37;;
27145;SDS011;17980;51.744;7.190;2024-02-28T09:22:49;8.77;;;4.33;;
27145;SDS011;17980;51.744;7.190;2024-02-28T09:25:16;6.90;;;4.17;;
27145;SDS011;17980;51.744;7.190;2024-02-28T09:27:53;5.27;;;3.67;;
27145;SDS011;17980;51.744;7.190;2024-02-28T09:30:21;11.23;;;5.07;;
27145;SDS011;17980;51.744;7.190;2024-02-28T09:32:49;8.47;;;4.33;;
27145;SDS011;17980;51.744;7.190;2024-02-28T09:35:26;7.30;;;3.97;;
27145;SDS011;17980;51.744;7.190;2024-02-28T09:37:53;6.70;;;4.10;;
27145;SDS011;17980;51.744;7.190;2024-02-28T09:40:20;9.03;;;4.70;;
27145;SDS011;17980;51.744;7.190;2024-02-28T09:42:50;7.07;;;2.80;;
27145;SDS011;17980;51.744;7.190;2024-02-28T09:45:19;8.80;;;4.67;;
27145;SDS011;17980;51.744;7.190;2024-02-28T09:47:57;8.17;;;4.37;;
27145;SDS011;17980;51.744;7.190;2024-02-28T09:50:26;11.20;;;4.33;;
27145;SDS011;17980;51.744;7.190;2024-02-28T09:52:53;5.13;;;3.40;;
27145;SDS011;17980;51.744;7.190;2024-02-28T09:55:31;8.60;;;4.77;;
27145;SDS011;17980;51.744;7.190;2024-02-28T09:57:58;7.73;;;4.70;;
27145;SDS011;17980;51.744;7.190;2024-02-28T10:00:27;10.73;;;4.07;;
27145;SDS011;17980;51.744;7.190;2024-02-28T10:02:54;8.37;;;3.27;;
27145;SDS011;17980;51.744;7.190;2024-02-28T10:05:32;6.60;;;2.97;;
27145;SDS011;17980;51.744;7.190;2024-02-28T10:08:01;7.53;;;3.30;;
27145;SDS011;17980;51.744;7.190;2024-02-28T10:10:28;6.57;;;2.87;;
27145;SDS011;17980;51.744;7.190;2024-02-28T10:12:56;5.83;;;3.30;;
27145;SDS011;17980;51.744;7.190;2024-02-28T10:15:33;7.93;;;3.23;;
27145;SDS011;17980;51.744;7.190;2024-02-28T10:18:00;6.23;;;3.23;;
27145;SDS011;17980;51.744;7.190;2024-02-28T10:20:30;3.83;;;2.43;;
27145;SDS011;17980;51.744;7.190;2024-02-28T10:22:58;4.60;;;3.07;;
27145;SDS011;17980;51.744;7.190;2024-02-28T10:25:41;8.10;;;4.60;;
27145;SDS011;17980;51.744;7.190;2024-02-28T10:28:10;8.27;;;4.17;;
27145;SDS011;17980;51.744;7.190;2024-02-28T10:30:39;9.70;;;4.53;;
27145;SDS011;17980;51.744;7.190;2024-02-28T10:33:10;9.10;;;4.67;;
27145;SDS011;17980;51.744;7.190;2024-02-28T10:35:50;8.67;;;3.43;;
27145;SDS011;17980;51.744;7.190;2024-02-28T10:38:18;5.77;;;3.67;;
27145;SDS011;17980;51.744;7.190;2024-02-28T10:40:47;9.60;;;5.13;;
27145;SDS011;17980;51.744;7.190;2024-02-28T10:43:15;7.37;;;3.00;;
27145;SDS011;17980;51.744;7.190;2024-02-28T10:45:53;7.87;;;4.00;;
27145;SDS011;17980;51.744;7.190;2024-02-28T10:48:22;6.43;;;3.80;;
27145;SDS011;17980;51.744;7.190;2024-02-28T10:50:50;9.23;;;3.87;;
27145;SDS011;17980;51.744;7.190;2024-02-28T10:53:19;5.60;;;3.90;;
27145;SDS011;17980;51.744;7.190;2024-02-28T10:55:56;3.40;;;2.53;;
27145;SDS011;17980;51.744;7.190;2024-02-28T10:58:27;5.40;;;3.33;;
27145;SDS011;17980;51.744;7.190;2024-02-28T11:01:06;6.57;;;3.77;;
27145;SDS011;17980;51.744;7.190;2024-02-28T11:03:34;6.97;;;2.93;;
27145;SDS011;17980;51.744;7.190;2024-02-28T11:06:16;4.63;;;2.73;;
27145;SDS011;17980;51.744;7.190;2024-02-28T11:08:46;7.90;;;4.37;;
27145;SDS011;17980;51.744;7.190;2024-02-28T11:11:14;9.53;;;4.73;;
27145;SDS011;17980;51.744;7.190;2024-02-28T11:13:51;11.50;;;4.73;;
27145;SDS011;17980;51.744;7.190;2024-02-28T11:16:29;7.30;;;4.07;;
27145;SDS011;17980;51.744;7.190;2024-02-28T11:21:34;9.50;;;4.30;;
27145;SDS011;17980;51.744;7.190;2024-02-28T11:24:02;7.93;;;3.00;;
27145;SDS011;17980;51.744;7.190;2024-02-28T11:26:39;4.30;;;3.10;;
27145;SDS011;17980;51.744;7.190;2024-02-28T11:29:07;9.23;;;4.10;;
27145;SDS011;17980;51.744;7.190;2024-02-28T11:31:35;5.63;;;3.17;;
27145;SDS011;17980;51.744;7.190;2024-02-28T11:34:02;2.50;;;1.70;;
27145;SDS011;17980;51.744;7.190;2024-02-28T11:36:39;6.30;;;2.70;;
27145;SDS011;17980;51.744;7.190;2024-02-28T11:39:07;6.47;;;2.97;;
27145;SDS011;17980;51.744;7.190;2024-02-28T11:41:35;7.07;;;3.13;;
27145;SDS011;17980;51.744;7.190;2024-02-28T11:44:02;5.97;;;2.23;;
27145;SDS011;17980;51.744;7.190;2024-02-28T11:46:43;6.73;;;2.73;;
27145;SDS011;17980;51.744;7.190;2024-02-28T11:49:11;3.63;;;2.17;;
27145;SDS011;17980;51.744;7.190;2024-02-28T11:51:48;6.40;;;2.50;;
27145;SDS011;17980;51.744;7.190;2024-02-28T11:54:16;3.93;;;3.27;;
27145;SDS011;17980;51.744;7.190;2024-02-28T11:56:53;4.23;;;2.57;;
27145;SDS011;17980;51.744;7.190;2024-02-28T11:59:20;9.33;;;3.87;;
27145;SDS011;17980;51.744;7.190;2024-02-28T12:01:47;7.83;;;2.83;;
27145;SDS011;17980;51.744;7.190;2024-02-28T12:04:25;7.23;;;3.87;;
27145;SDS011;17980;51.744;7.190;2024-02-28T12:06:53;6.40;;;2.90;;
27145;SDS011;17980;51.744;7.190;2024-02-28T12:09:20;5.60;;;2.80;;
27145;SDS011;17980;51.744;7.190;2024-02-28T12:11:48;6.93;;;2.77;;
27145;SDS011;17980;51.744;7.190;2024-02-28T12:14:25;6.93;;;3.37;;
27145;SDS011;17980;51.744;7.190;2024-02-28T12:16:53;7.07;;;4.03;;
27145;SDS011;17980;51.744;7.190;2024-02-28T12:19:30;6.97;;;2.97;;
27145;SDS011;17980;51.744;7.190;2024-02-28T12:21:57;6.63;;;2.97;;
27145;SDS011;17980;51.744;7.190;2024-02-28T12:24:34;5.40;;;2.53;;
27145;SDS011;17980;51.744;7.190;2024-02-28T12:27:02;9.53;;;4.57;;
27145;SDS011;17980;51.744;7.190;2024-02-28T12:29:30;7.00;;;3.43;;
27145;SDS011;17980;51.744;7.190;2024-02-28T12:31:57;9.27;;;4.80;;
27145;SDS011;17980;51.744;7.190;2024-02-28T12:34:25;8.53;;;5.10;;
27145;SDS011;17980;51.744;7.190;2024-02-28T12:37:02;6.10;;;3.23;;
27145;SDS011;17980;51.744;7.190;2024-02-28T12:39:30;6.27;;;3.17;;
27145;SDS011;17980;51.744;7.190;2024-02-28T12:42:00;7.47;;;3.10;;
27145;SDS011;17980;51.744;7.190;2024-02-28T12:44:28;6.67;;;3.77;;
27145;SDS011;17980;51.744;7.190;2024-02-28T12:47:05;6.77;;;3.87;;
27145;SDS011;17980;51.744;7.190;2024-02-28T12:49:32;7.03;;;3.03;;
27145;SDS011;17980;51.744;7.190;2024-02-28T12:52:00;6.33;;;2.90;;
27145;SDS011;17980;51.744;7.190;2024-02-28T12:54:28;10.40;;;3.23;;
27145;SDS011;17980;51.744;7.190;2024-02-28T12:57:05;11.17;;;4.87;;
27145;SDS011;17980;51.744;7.190;2024-02-28T12:59:34;6.50;;;3.50;;
27145;SDS011;17980;51.744;7.190;2024-02-28T13:02:02;6.03;;;3.90;;
27145;SDS011;17980;51.744;7.190;2024-02-28T13:04:30;8.97;;;4.53;;
27145;SDS011;17980;51.744;7.190;2024-02-28T13:07:07;3.87;;;2.90;;
27145;SDS011;17980;51.744;7.190;2024-02-28T13:09:35;7.23;;;3.43;;
27145;SDS011;17980;51.744;7.190;2024-02-28T13:12:04;9.93;;;4.67;;
27145;SDS011;17980;51.744;7.190;2024-02-28T13:14:47;4.77;;;3.57;;
27145;SDS011;17980;51.744;7.190;2024-02-28T13:17:15;5.73;;;3.57;;
27145;SDS011;17980;51.744;7.190;2024-02-28T13:19:52;11.03;;;5.00;;
27145;SDS011;17980;51.744;7.190;2024-02-28T13:22:19;5.57;;;3.43;;
27145;SDS011;17980;51.744;7.190;2024-02-28T13:24:46;5.30;;;3.83;;
27145;SDS011;17980;51.744;7.190;2024-02-28T13:27:23;5.97;;;3.70;;
27145;SDS011;17980;51.744;7.190;2024-02-28T13:29:51;5.33;;;2.63;;
27145;SDS011;17980;51.744;7.190;2024-02-28T13:32:18;7.63;;;3.87;;
27145;SDS011;17980;51.744;7.190;2024-02-28T13:34:45;7.70;;;3.77;;
27145;SDS011;17980;51.744;7.190;2024-02-28T13:37:22;9.60;;;4.57;;
27145;SDS011;17980;51.744;7.190;2024-02-28T13:39:50;10.87;;;4.10;;
27145;SDS011;17980;51.744;7.190;2024-02-28T13:42:18;8.70;;;4.20;;
27145;SDS011;17980;51.744;7.190;2024-02-28T13:44:49;7.87;;;3.80;;
27145;SDS011;17980;51.744;7.190;2024-02-28T13:47:26;5.53;;;3.30;;
27145;SDS011;17980;51.744;7.190;2024-02-28T13:49:54;4.87;;;2.00;;
27145;SDS011;17980;51.744;7.190;2024-02-28T13:52:22;7.77;;;3.07;;
27145;SDS011;17980;51.744;7.190;2024-02-28T13:54:49;7.60;;;3.00;;
27145;SDS011;17980;51.744;7.190;2024-02-28T13:57:26;5.67;;;3.27;;
27145;SDS011;17980;51.744;7.190;2024-02-28T13:59:54;7.37;;;3.63;;
27145;SDS011;17980;51.744;7.190;2024-02-28T14:02:22;4.50;;;2.90;;
27145;SDS011;17980;51.744;7.190;2024-02-28T14:04:52;6.93;;;3.90;;
27145;SDS011;17980;51.744;7.190;2024-02-28T14:07:29;3.87;;;2.70;;
27145;SDS011;17980;51.744;7.190;2024-02-28T14:09:56;7.37;;;3.60;;
27145;SDS011;17980;51.744;7.190;2024-02-28T14:12:24;8.20;;;3.97;;
27145;SDS011;17980;51.744;7.190;2024-02-28T14:14:51;11.50;;;3.77;;
27145;SDS011;17980;51.744;7.190;2024-02-28T14:17:28;6.13;;;3.27;;
27145;SDS011;17980;51.744;7.190;2024-02-28T14:19:55;6.47;;;2.90;;
27145;SDS011;17980;51.744;7.190;2024-02-28T14:22:23;5.30;;;2.80;;
27145;SDS011;17980;51.744;7.190;2024-02-28T14:24:51;4.10;;;2.50;;
27145;SDS011;17980;51.744;7.190;2024-02-28T14:27:34;5.20;;;2.50;;
27145;SDS011;17980;51.744;7.190;2024-02-28T14:30:04;3.70;;;2.10;;
27145;SDS011;17980;51.744;7.190;2024-02-28T14:32:34;6.17;;;2.37;;
27145;SDS011;17980;51.744;7.190;2024-02-28T14:35:11;5.33;;;2.73;;
27145;SDS011;17980;51.744;7.190;2024-02-28T14:37:39;5.40;;;2.63;;
27145;SDS011;17980;51.744;7.190;2024-02-28T14:40:08;8.57;;;3.93;;
27145;SDS011;17980;51.744;7.190;2024-02-28T14:42:36;3.10;;;2.27;;
27145;SDS011;17980;51.744;7.190;2024-02-28T14:45:13;3.47;;;2.07;;
27145;SDS011;17980;51.744;7.190;2024-02-28T14:47:40;5.90;;;2.30;;
27145;SDS011;17980;51.744;7.190;2024-02-28T14:50:18;4.30;;;2.47;;
27145;SDS011;17980;51.744;7.190;2024-02-28T14:52:46;4.33;;;2.73;;
27145;SDS011;17980;51.744;7.190;2024-02-28T14:55:24;6.30;;;3.33;;
27145;SDS011;17980;51.744;7.190;2024-02-28T14:57:52;4.50;;;3.20;;
27145;SDS011;17980;51.744;7.190;2024-02-28T15:02:55;4.37;;;3.07;;
27145;SDS011;17980;51.744;7.190;2024-02-28T15:05:23;5.80;;;2.73;;
27145;SDS011;17980;51.744;7.190;2024-02-28T15:08:00;4.77;;;2.20;;
27145;SDS011;17980;51.744;7.190;2024-02-28T15:10:27;3.80;;;2.10;;
27145;SDS011;17980;51.744;7.190;2024-02-28T15:12:55;4.60;;;2.67;;
27145;SDS011;17980;51.744;7.190;2024-02-28T15:15:32;4.37;;;2.33;;
27145;SDS011;17980;51.744;7.190;2024-02-28T15:17:59;3.83;;;2.83;;
27145;SDS011;17980;51.744;7.190;2024-02-28T15:20:27;7.37;;;2.93;;